Schedule Details


Flight Number: CTN656
Departure: Franjo Tudman (LDZA) at 22:05
Arrival: Kastela (LDSP) at 22:50
Route: NIVES Y137 PALEZ L862 OKLAX

Weather Information
LDZA 170030Z 24003KT 0300 R04/0500N R22/1400D FG VV002 03/02 Q1022 NOSIG
LDSP 170030Z AUTO 36005KT CAVOK 13/04 Q1017
Schedule Frequency

Route Map